Tropical Cyclones
[Index]
Main Index Home Page Stock Weather Photos Extreme Storms Discussion Storm News and Storm Chasing Reports Tropical Cyclones / Hurricanes / Typhoons Weather Data and Links Wild Fires / Bushfires Weather Observation Techniques Weather Picture Catalogue Tornado Pictures and Reports Stock Video Footage and DVDs for sale
Season 1998-1999 Tropical Cyclone ELLA Track Map
Season 1998-1999 Summaries (Operational Data): [AU] [SIO] [SPAC] [SH]
<<- Previous TC | 1998-1999 Season | Next TC ->>

click for intensity scale information  Lat/long Grid: Show Hide

 Date Labels: Show Hide

Operational Tropical Cyclone Data : JTWC Advisories

Name: ELLA
Number: 9919

09 Feb 1999 06:00 UTC to 14 Feb 1999 00:00 UTC

    date/time    lat    long     hPa   cat  kts
1999-02-09 06   13.0   160.0     999                     
1999-02-09 11   13.2   160.4     999                     
1999-02-10 00   11.2   160.6    1000         25          
1999-02-10 06   11.3   160.9     995         30          
1999-02-10 12   11.4   161.1     995         30          
1999-02-10 18   11.3   162.1     995         30          
1999-02-11 00   11.0   163.0     995         30          
1999-02-11 04   11.8   164.0     990    1    35          
1999-02-11 06   12.2   164.1     988    1    40          
1999-02-11 12   13.8   164.9     988    1    40          
1999-02-11 18   15.6   164.6     987    1    45          
1999-02-12 00   17.5   165.4     990    1    40          
1999-02-12 06   19.5   165.9     995    1    35          
1999-02-12 12   20.6   166.7     990    1    40          
1999-02-12 18   22.0   167.6     990    1    40          
1999-02-13 00   23.1   168.8     990    1    40          
1999-02-13 06   24.4   169.7     990    1    40          
1999-02-13 12   25.0   170.0     990    1    35          
1999-02-13 18   25.5   170.0     995    1    35          
1999-02-14 00   26.0   170.0    1001    1    35          
Winds are 10-min average.

Tropical cyclone tracks developed by Michael Bath using operational warnings and advisories and Google Maps.


[Australian Severe Weather index] [Copyright Notice] [Email Contacts] [Search This Site] [Privacy Policy]
Document: tropical_cyclone_ella.htm Updated: 4 September 2016